sensor_id;sensor_type;location;lat;lon;timestamp;P1;durP1;ratioP1;P2;durP2;ratioP2
572;SDS011;271;51.114;13.780;2022-09-29T00:01:53;19.08;;;3.17;;
572;SDS011;271;51.114;13.780;2022-09-29T00:04:20;18.10;;;2.63;;
572;SDS011;271;51.114;13.780;2022-09-29T00:06:47;18.25;;;2.90;;
572;SDS011;271;51.114;13.780;2022-09-29T00:09:16;18.63;;;3.00;;
572;SDS011;271;51.114;13.780;2022-09-29T00:11:43;18.92;;;3.15;;
572;SDS011;271;51.114;13.780;2022-09-29T00:14:10;19.08;;;3.15;;
572;SDS011;271;51.114;13.780;2022-09-29T00:16:37;18.73;;;3.22;;
572;SDS011;271;51.114;13.780;2022-09-29T00:19:05;19.52;;;3.72;;
572;SDS011;271;51.114;13.780;2022-09-29T00:21:32;18.90;;;3.80;;
572;SDS011;271;51.114;13.780;2022-09-29T00:23:59;18.90;;;3.75;;
572;SDS011;271;51.114;13.780;2022-09-29T00:26:28;19.45;;;3.25;;
572;SDS011;271;51.114;13.780;2022-09-29T00:28:56;20.48;;;3.10;;
572;SDS011;271;51.114;13.780;2022-09-29T00:31:26;19.65;;;3.47;;
572;SDS011;271;51.114;13.780;2022-09-29T00:33:54;18.15;;;3.00;;
572;SDS011;271;51.114;13.780;2022-09-29T00:36:23;19.83;;;3.42;;
572;SDS011;271;51.114;13.780;2022-09-29T00:38:55;18.17;;;2.80;;
572;SDS011;271;51.114;13.780;2022-09-29T00:41:24;18.23;;;2.83;;
572;SDS011;271;51.114;13.780;2022-09-29T00:43:55;18.10;;;3.03;;
572;SDS011;271;51.114;13.780;2022-09-29T00:46:26;18.67;;;3.10;;
572;SDS011;271;51.114;13.780;2022-09-29T00:49:11;20.25;;;2.78;;
572;SDS011;271;51.114;13.780;2022-09-29T00:51:43;18.45;;;2.70;;
572;SDS011;271;51.114;13.780;2022-09-29T00:54:13;19.30;;;3.92;;
572;SDS011;271;51.114;13.780;2022-09-29T00:56:41;18.05;;;2.97;;
572;SDS011;271;51.114;13.780;2022-09-29T00:59:13;21.23;;;3.10;;
572;SDS011;271;51.114;13.780;2022-09-29T01:01:44;17.88;;;2.72;;
572;SDS011;271;51.114;13.780;2022-09-29T01:04:13;18.95;;;2.95;;
572;SDS011;271;51.114;13.780;2022-09-29T01:06:44;18.17;;;2.80;;
572;SDS011;271;51.114;13.780;2022-09-29T01:09:13;18.35;;;2.95;;
572;SDS011;271;51.114;13.780;2022-09-29T01:11:42;18.42;;;2.92;;
572;SDS011;271;51.114;13.780;2022-09-29T01:14:11;18.23;;;2.95;;
572;SDS011;271;51.114;13.780;2022-09-29T01:16:39;18.35;;;2.90;;
572;SDS011;271;51.114;13.780;2022-09-29T01:19:09;17.85;;;3.00;;
572;SDS011;271;51.114;13.780;2022-09-29T01:21:41;17.67;;;2.75;;
572;SDS011;271;51.114;13.780;2022-09-29T01:27:29;17.92;;;2.67;;
572;SDS011;271;51.114;13.780;2022-09-29T01:30:15;18.45;;;3.28;;
572;SDS011;271;51.114;13.780;2022-09-29T01:32:57;18.02;;;2.70;;
572;SDS011;271;51.114;13.780;2022-09-29T01:35:36;18.02;;;2.78;;
572;SDS011;271;51.114;13.780;2022-09-29T01:38:18;17.60;;;2.55;;
572;SDS011;271;51.114;13.780;2022-09-29T01:41:11;17.80;;;2.40;;
572;SDS011;271;51.114;13.780;2022-09-29T01:43:45;17.45;;;2.58;;
572;SDS011;271;51.114;13.780;2022-09-29T01:46:19;22.00;;;2.72;;
572;SDS011;271;51.114;13.780;2022-09-29T01:48:51;17.20;;;2.45;;
572;SDS011;271;51.114;13.780;2022-09-29T01:51:22;18.67;;;2.25;;
572;SDS011;271;51.114;13.780;2022-09-29T01:53:53;17.52;;;2.40;;
572;SDS011;271;51.114;13.780;2022-09-29T01:56:26;19.52;;;2.80;;
572;SDS011;271;51.114;13.780;2022-09-29T01:59:03;17.98;;;2.53;;
572;SDS011;271;51.114;13.780;2022-09-29T02:01:36;19.80;;;2.35;;
572;SDS011;271;51.114;13.780;2022-09-29T02:04:08;17.85;;;2.45;;
572;SDS011;271;51.114;13.780;2022-09-29T02:06:38;19.25;;;2.70;;
572;SDS011;271;51.114;13.780;2022-09-29T02:09:13;17.40;;;2.42;;
572;SDS011;271;51.114;13.780;2022-09-29T02:11:44;18.40;;;2.53;;
572;SDS011;271;51.114;13.780;2022-09-29T02:14:15;18.23;;;2.88;;
572;SDS011;271;51.114;13.780;2022-09-29T02:16:46;17.85;;;2.33;;
572;SDS011;271;51.114;13.780;2022-09-29T02:19:17;18.73;;;2.70;;
572;SDS011;271;51.114;13.780;2022-09-29T02:21:46;18.33;;;2.42;;
572;SDS011;271;51.114;13.780;2022-09-29T02:24:13;18.90;;;2.55;;
572;SDS011;271;51.114;13.780;2022-09-29T02:26:41;17.38;;;2.55;;
572;SDS011;271;51.114;13.780;2022-09-29T02:29:10;18.20;;;2.65;;
572;SDS011;271;51.114;13.780;2022-09-29T02:31:37;17.70;;;2.47;;
572;SDS011;271;51.114;13.780;2022-09-29T02:34:05;22.95;;;3.20;;
572;SDS011;271;51.114;13.780;2022-09-29T02:36:38;19.25;;;2.75;;
572;SDS011;271;51.114;13.780;2022-09-29T02:39:11;19.15;;;2.30;;
572;SDS011;271;51.114;13.780;2022-09-29T02:41:46;17.65;;;2.60;;
572;SDS011;271;51.114;13.780;2022-09-29T02:44:24;17.38;;;2.30;;
572;SDS011;271;51.114;13.780;2022-09-29T02:47:13;17.98;;;2.83;;
572;SDS011;271;51.114;13.780;2022-09-29T02:49:54;17.90;;;2.20;;
572;SDS011;271;51.114;13.780;2022-09-29T02:52:35;17.08;;;2.13;;
572;SDS011;271;51.114;13.780;2022-09-29T02:55:11;18.02;;;2.63;;
572;SDS011;271;51.114;13.780;2022-09-29T02:57:46;17.85;;;2.58;;
572;SDS011;271;51.114;13.780;2022-09-29T03:00:18;21.70;;;2.83;;
572;SDS011;271;51.114;13.780;2022-09-29T03:02:46;18.13;;;3.30;;
572;SDS011;271;51.114;13.780;2022-09-29T03:05:14;17.80;;;2.38;;
572;SDS011;271;51.114;13.780;2022-09-29T03:07:44;19.83;;;2.88;;
572;SDS011;271;51.114;13.780;2022-09-29T03:10:12;18.23;;;2.88;;
572;SDS011;271;51.114;13.780;2022-09-29T03:12:39;18.42;;;2.80;;
572;SDS011;271;51.114;13.780;2022-09-29T03:15:07;17.92;;;2.63;;
572;SDS011;271;51.114;13.780;2022-09-29T03:17:37;18.55;;;2.92;;
572;SDS011;271;51.114;13.780;2022-09-29T03:20:05;18.23;;;2.50;;
572;SDS011;271;51.114;13.780;2022-09-29T03:22:33;17.63;;;2.33;;
572;SDS011;271;51.114;13.780;2022-09-29T03:25:02;17.25;;;2.17;;
572;SDS011;271;51.114;13.780;2022-09-29T03:27:30;18.85;;;2.47;;
572;SDS011;271;51.114;13.780;2022-09-29T03:29:58;19.73;;;3.13;;
572;SDS011;271;51.114;13.780;2022-09-29T03:32:25;18.50;;;2.70;;
572;SDS011;271;51.114;13.780;2022-09-29T03:34:52;18.10;;;2.92;;
572;SDS011;271;51.114;13.780;2022-09-29T03:37:19;18.33;;;2.55;;
572;SDS011;271;51.114;13.780;2022-09-29T03:39:47;18.40;;;2.67;;
572;SDS011;271;51.114;13.780;2022-09-29T03:42:15;18.45;;;2.70;;
572;SDS011;271;51.114;13.780;2022-09-29T03:44:42;18.70;;;2.83;;
572;SDS011;271;51.114;13.780;2022-09-29T03:47:09;17.88;;;2.75;;
572;SDS011;271;51.114;13.780;2022-09-29T03:49:37;17.73;;;2.53;;
572;SDS011;271;51.114;13.780;2022-09-29T03:52:04;18.30;;;3.00;;
572;SDS011;271;51.114;13.780;2022-09-29T03:54:31;18.25;;;3.17;;
572;SDS011;271;51.114;13.780;2022-09-29T03:56:59;17.70;;;2.70;;
572;SDS011;271;51.114;13.780;2022-09-29T03:59:27;18.13;;;3.20;;
572;SDS011;271;51.114;13.780;2022-09-29T04:01:55;19.20;;;2.55;;
572;SDS011;271;51.114;13.780;2022-09-29T04:04:22;16.77;;;1.90;;
572;SDS011;271;51.114;13.780;2022-09-29T04:06:49;17.80;;;2.25;;
572;SDS011;271;51.114;13.780;2022-09-29T04:09:16;19.95;;;2.63;;
572;SDS011;271;51.114;13.780;2022-09-29T04:11:43;17.50;;;2.38;;
572;SDS011;271;51.114;13.780;2022-09-29T04:14:11;18.23;;;2.80;;
572;SDS011;271;51.114;13.780;2022-09-29T04:16:39;18.60;;;2.60;;
572;SDS011;271;51.114;13.780;2022-09-29T04:19:06;18.35;;;3.00;;
572;SDS011;271;51.114;13.780;2022-09-29T04:21:33;19.02;;;3.53;;
572;SDS011;271;51.114;13.780;2022-09-29T04:24:01;23.55;;;6.15;;
572;SDS011;271;51.114;13.780;2022-09-29T04:26:28;22.05;;;6.25;;
572;SDS011;271;51.114;13.780;2022-09-29T04:28:55;22.08;;;6.03;;
572;SDS011;271;51.114;13.780;2022-09-29T04:31:22;22.13;;;6.60;;
572;SDS011;271;51.114;13.780;2022-09-29T04:33:51;21.20;;;6.15;;
572;SDS011;271;51.114;13.780;2022-09-29T04:36:18;19.95;;;5.65;;
572;SDS011;271;51.114;13.780;2022-09-29T04:38:45;19.88;;;4.40;;
572;SDS011;271;51.114;13.780;2022-09-29T04:41:13;19.70;;;4.22;;
572;SDS011;271;51.114;13.780;2022-09-29T04:43:40;19.13;;;4.30;;
572;SDS011;271;51.114;13.780;2022-09-29T04:46:07;20.30;;;5.30;;
572;SDS011;271;51.114;13.780;2022-09-29T04:48:35;21.02;;;4.90;;
572;SDS011;271;51.114;13.780;2022-09-29T04:51:04;20.77;;;5.13;;
572;SDS011;271;51.114;13.780;2022-09-29T04:53:32;20.55;;;4.80;;
572;SDS011;271;51.114;13.780;2022-09-29T04:56:03;22.08;;;5.50;;
572;SDS011;271;51.114;13.780;2022-09-29T04:58:31;21.58;;;6.80;;
572;SDS011;271;51.114;13.780;2022-09-29T05:01:03;20.13;;;4.95;;
572;SDS011;271;51.114;13.780;2022-09-29T05:03:34;19.60;;;4.55;;
572;SDS011;271;51.114;13.780;2022-09-29T05:06:01;19.10;;;4.05;;
572;SDS011;271;51.114;13.780;2022-09-29T05:08:30;19.33;;;3.75;;
572;SDS011;271;51.114;13.780;2022-09-29T05:10:58;19.35;;;3.65;;
572;SDS011;271;51.114;13.780;2022-09-29T05:13:29;20.67;;;3.53;;
572;SDS011;271;51.114;13.780;2022-09-29T05:15:56;18.02;;;3.53;;
572;SDS011;271;51.114;13.780;2022-09-29T05:18:24;18.73;;;3.80;;
572;SDS011;271;51.114;13.780;2022-09-29T05:20:51;20.38;;;4.65;;
572;SDS011;271;51.114;13.780;2022-09-29T05:23:20;21.13;;;5.80;;
572;SDS011;271;51.114;13.780;2022-09-29T05:25:47;22.38;;;5.55;;
572;SDS011;271;51.114;13.780;2022-09-29T05:28:15;21.95;;;6.20;;
572;SDS011;271;51.114;13.780;2022-09-29T05:30:42;20.92;;;5.68;;
572;SDS011;271;51.114;13.780;2022-09-29T05:33:09;22.23;;;6.07;;
572;SDS011;271;51.114;13.780;2022-09-29T05:35:36;21.33;;;5.93;;
572;SDS011;271;51.114;13.780;2022-09-29T05:38:04;20.77;;;6.13;;
572;SDS011;271;51.114;13.780;2022-09-29T05:40:34;21.17;;;5.72;;
572;SDS011;271;51.114;13.780;2022-09-29T05:43:02;18.98;;;4.45;;
572;SDS011;271;51.114;13.780;2022-09-29T05:45:30;18.50;;;3.50;;
572;SDS011;271;51.114;13.780;2022-09-29T05:47:57;20.17;;;3.45;;
572;SDS011;271;51.114;13.780;2022-09-29T05:50:24;18.65;;;3.40;;
572;SDS011;271;51.114;13.780;2022-09-29T05:52:51;17.85;;;3.10;;
572;SDS011;271;51.114;13.780;2022-09-29T05:55:19;18.98;;;3.55;;
572;SDS011;271;51.114;13.780;2022-09-29T05:57:48;18.00;;;3.10;;
572;SDS011;271;51.114;13.780;2022-09-29T06:00:15;18.88;;;3.70;;
572;SDS011;271;51.114;13.780;2022-09-29T06:02:42;19.10;;;3.10;;
572;SDS011;271;51.114;13.780;2022-09-29T06:05:09;19.17;;;3.30;;
572;SDS011;271;51.114;13.780;2022-09-29T06:07:36;18.70;;;3.47;;
572;SDS011;271;51.114;13.780;2022-09-29T06:10:04;18.42;;;3.25;;
572;SDS011;271;51.114;13.780;2022-09-29T06:12:34;19.60;;;3.33;;
572;SDS011;271;51.114;13.780;2022-09-29T06:15:04;21.40;;;3.80;;
572;SDS011;271;51.114;13.780;2022-09-29T06:17:32;18.58;;;3.50;;
572;SDS011;271;51.114;13.780;2022-09-29T06:20:00;18.63;;;3.50;;
572;SDS011;271;51.114;13.780;2022-09-29T06:22:27;17.95;;;3.13;;
572;SDS011;271;51.114;13.780;2022-09-29T06:24:54;20.35;;;3.95;;
572;SDS011;271;51.114;13.780;2022-09-29T06:27:22;19.52;;;4.07;;
572;SDS011;271;51.114;13.780;2022-09-29T06:29:50;20.08;;;5.07;;
572;SDS011;271;51.114;13.780;2022-09-29T06:32:18;18.98;;;4.43;;
572;SDS011;271;51.114;13.780;2022-09-29T06:34:45;20.52;;;5.38;;
572;SDS011;271;51.114;13.780;2022-09-29T06:37:30;19.83;;;4.95;;
572;SDS011;271;51.114;13.780;2022-09-29T06:40:00;20.30;;;5.15;;
572;SDS011;271;51.114;13.780;2022-09-29T06:42:28;27.80;;;8.57;;
572;SDS011;271;51.114;13.780;2022-09-29T06:44:55;40.92;;;18.02;;
572;SDS011;271;51.114;13.780;2022-09-29T06:47:24;25.88;;;9.63;;
572;SDS011;271;51.114;13.780;2022-09-29T06:49:51;25.70;;;8.90;;
572;SDS011;271;51.114;13.780;2022-09-29T06:52:18;33.03;;;14.68;;
572;SDS011;271;51.114;13.780;2022-09-29T06:54:45;28.95;;;11.95;;
572;SDS011;271;51.114;13.780;2022-09-29T06:57:13;23.92;;;7.80;;
572;SDS011;271;51.114;13.780;2022-09-29T06:59:40;20.65;;;5.95;;
572;SDS011;271;51.114;13.780;2022-09-29T07:02:08;22.17;;;4.80;;
572;SDS011;271;51.114;13.780;2022-09-29T07:04:40;21.98;;;5.82;;
572;SDS011;271;51.114;13.780;2022-09-29T07:07:07;21.48;;;5.20;;
572;SDS011;271;51.114;13.780;2022-09-29T07:09:34;22.05;;;5.60;;
572;SDS011;271;51.114;13.780;2022-09-29T07:12:02;19.30;;;3.90;;
572;SDS011;271;51.114;13.780;2022-09-29T07:14:30;20.83;;;5.47;;
572;SDS011;271;51.114;13.780;2022-09-29T07:16:57;20.90;;;5.43;;
572;SDS011;271;51.114;13.780;2022-09-29T07:19:30;22.33;;;5.57;;
572;SDS011;271;51.114;13.780;2022-09-29T07:21:59;26.23;;;8.30;;
572;SDS011;271;51.114;13.780;2022-09-29T07:24:26;20.13;;;4.95;;
572;SDS011;271;51.114;13.780;2022-09-29T07:26:53;22.27;;;5.85;;
572;SDS011;271;51.114;13.780;2022-09-29T07:29:21;19.55;;;4.88;;
572;SDS011;271;51.114;13.780;2022-09-29T07:31:57;21.13;;;5.50;;
572;SDS011;271;51.114;13.780;2022-09-29T07:34:24;20.50;;;5.20;;
572;SDS011;271;51.114;13.780;2022-09-29T07:36:52;21.40;;;5.80;;
572;SDS011;271;51.114;13.780;2022-09-29T07:39:20;20.58;;;5.05;;
572;SDS011;271;51.114;13.780;2022-09-29T07:41:48;20.70;;;5.73;;
572;SDS011;271;51.114;13.780;2022-09-29T07:44:19;20.07;;;5.57;;
572;SDS011;271;51.114;13.780;2022-09-29T07:46:47;21.43;;;5.77;;
572;SDS011;271;51.114;13.780;2022-09-29T07:49:14;19.95;;;5.30;;
572;SDS011;271;51.114;13.780;2022-09-29T07:51:41;20.40;;;6.00;;
572;SDS011;271;51.114;13.780;2022-09-29T07:54:14;22.08;;;6.00;;
572;SDS011;271;51.114;13.780;2022-09-29T07:56:43;20.10;;;5.20;;
572;SDS011;271;51.114;13.780;2022-09-29T07:59:10;19.30;;;4.65;;
572;SDS011;271;51.114;13.780;2022-09-29T08:01:37;20.87;;;5.53;;
572;SDS011;271;51.114;13.780;2022-09-29T08:04:04;19.52;;;4.57;;
572;SDS011;271;51.114;13.780;2022-09-29T08:06:32;20.43;;;6.00;;
572;SDS011;271;51.114;13.780;2022-09-29T08:09:08;19.80;;;5.50;;
572;SDS011;271;51.114;13.780;2022-09-29T08:11:36;20.53;;;5.23;;
572;SDS011;271;51.114;13.780;2022-09-29T08:14:06;19.83;;;6.37;;
572;SDS011;271;51.114;13.780;2022-09-29T08:16:34;20.07;;;5.40;;
572;SDS011;271;51.114;13.780;2022-09-29T08:19:02;20.20;;;5.63;;
572;SDS011;271;51.114;13.780;2022-09-29T08:21:30;19.77;;;5.10;;
572;SDS011;271;51.114;13.780;2022-09-29T08:24:01;20.67;;;5.50;;
572;SDS011;271;51.114;13.780;2022-09-29T08:26:30;18.53;;;4.93;;
572;SDS011;271;51.114;13.780;2022-09-29T08:28:59;20.53;;;4.63;;
572;SDS011;271;51.114;13.780;2022-09-29T08:31:29;20.07;;;4.77;;
572;SDS011;271;51.114;13.780;2022-09-29T08:33:56;18.90;;;4.60;;
572;SDS011;271;51.114;13.780;2022-09-29T08:36:24;17.87;;;4.00;;
572;SDS011;271;51.114;13.780;2022-09-29T08:38:52;17.97;;;5.07;;
572;SDS011;271;51.114;13.780;2022-09-29T08:41:28;18.90;;;4.93;;
572;SDS011;271;51.114;13.780;2022-09-29T08:44:01;18.93;;;4.70;;
572;SDS011;271;51.114;13.780;2022-09-29T08:46:34;17.10;;;4.80;;
572;SDS011;271;51.114;13.780;2022-09-29T08:49:05;17.10;;;4.40;;
572;SDS011;271;51.114;13.780;2022-09-29T08:51:39;17.77;;;4.63;;
572;SDS011;271;51.114;13.780;2022-09-29T08:54:14;16.33;;;4.10;;
572;SDS011;271;51.114;13.780;2022-09-29T08:56:48;16.80;;;4.50;;
572;SDS011;271;51.114;13.780;2022-09-29T08:59:15;16.80;;;4.23;;
572;SDS011;271;51.114;13.780;2022-09-29T09:01:48;16.33;;;4.40;;
572;SDS011;271;51.114;13.780;2022-09-29T09:04:27;16.57;;;4.20;;
572;SDS011;271;51.114;13.780;2022-09-29T09:07:09;17.10;;;4.80;;
572;SDS011;271;51.114;13.780;2022-09-29T09:09:47;16.47;;;4.73;;
572;SDS011;271;51.114;13.780;2022-09-29T09:12:29;16.73;;;4.60;;
572;SDS011;271;51.114;13.780;2022-09-29T09:15:23;18.17;;;5.57;;
572;SDS011;271;51.114;13.780;2022-09-29T09:18:10;18.33;;;4.90;;
572;SDS011;271;51.114;13.780;2022-09-29T09:20:51;18.93;;;4.50;;
572;SDS011;271;51.114;13.780;2022-09-29T09:23:23;17.50;;;5.40;;
572;SDS011;271;51.114;13.780;2022-09-29T09:25:58;17.37;;;5.00;;
572;SDS011;271;51.114;13.780;2022-09-29T09:28:29;17.30;;;5.10;;
572;SDS011;271;51.114;13.780;2022-09-29T09:30:59;17.60;;;5.23;;
572;SDS011;271;51.114;13.780;2022-09-29T09:33:33;16.47;;;4.57;;
572;SDS011;271;51.114;13.780;2022-09-29T09:36:07;16.97;;;3.97;;
572;SDS011;271;51.114;13.780;2022-09-29T09:38:40;17.10;;;4.80;;
572;SDS011;271;51.114;13.780;2022-09-29T09:41:13;16.87;;;4.87;;
572;SDS011;271;51.114;13.780;2022-09-29T09:43:44;17.00;;;5.57;;
572;SDS011;271;51.114;13.780;2022-09-29T09:46:16;16.73;;;4.60;;
572;SDS011;271;51.114;13.780;2022-09-29T09:48:51;19.07;;;5.03;;
572;SDS011;271;51.114;13.780;2022-09-29T09:51:31;17.23;;;5.07;;
572;SDS011;271;51.114;13.780;2022-09-29T09:54:03;16.37;;;4.40;;
572;SDS011;271;51.114;13.780;2022-09-29T09:56:42;17.53;;;5.23;;
572;SDS011;271;51.114;13.780;2022-09-29T09:59:28;16.20;;;3.90;;
572;SDS011;271;51.114;13.780;2022-09-29T10:02:03;16.10;;;3.47;;
572;SDS011;271;51.114;13.780;2022-09-29T10:04:31;17.30;;;4.73;;
572;SDS011;271;51.114;13.780;2022-09-29T10:06:58;17.90;;;4.13;;
572;SDS011;271;51.114;13.780;2022-09-29T10:09:26;17.13;;;5.00;;
572;SDS011;271;51.114;13.780;2022-09-29T10:11:54;16.50;;;4.67;;
572;SDS011;271;51.114;13.780;2022-09-29T10:14:22;16.77;;;4.57;;
572;SDS011;271;51.114;13.780;2022-09-29T10:16:53;16.87;;;4.80;;
572;SDS011;271;51.114;13.780;2022-09-29T10:19:50;17.00;;;4.87;;
572;SDS011;271;51.114;13.780;2022-09-29T10:22:23;17.47;;;5.40;;
572;SDS011;271;51.114;13.780;2022-09-29T10:24:51;17.67;;;4.80;;
572;SDS011;271;51.114;13.780;2022-09-29T10:27:22;17.07;;;4.43;;
572;SDS011;271;51.114;13.780;2022-09-29T10:29:53;18.57;;;5.20;;
572;SDS011;271;51.114;13.780;2022-09-29T10:32:24;17.60;;;5.13;;
572;SDS011;271;51.114;13.780;2022-09-29T10:35:04;17.63;;;4.87;;
572;SDS011;271;51.114;13.780;2022-09-29T10:37:35;17.40;;;4.50;;
572;SDS011;271;51.114;13.780;2022-09-29T10:42:50;18.20;;;4.93;;
572;SDS011;271;51.114;13.780;2022-09-29T10:45:19;20.10;;;4.70;;
572;SDS011;271;51.114;13.780;2022-09-29T10:47:48;16.03;;;3.60;;
572;SDS011;271;51.114;13.780;2022-09-29T10:50:34;15.30;;;3.33;;
572;SDS011;271;51.114;13.780;2022-09-29T10:53:05;17.87;;;4.37;;
572;SDS011;271;51.114;13.780;2022-09-29T10:55:46;18.10;;;3.07;;
572;SDS011;271;51.114;13.780;2022-09-29T10:58:19;14.97;;;2.43;;
572;SDS011;271;51.114;13.780;2022-09-29T11:00:50;15.57;;;3.43;;
572;SDS011;271;51.114;13.780;2022-09-29T11:03:31;16.60;;;3.80;;
572;SDS011;271;51.114;13.780;2022-09-29T11:06:03;15.03;;;2.83;;
572;SDS011;271;51.114;13.780;2022-09-29T11:08:32;15.10;;;2.43;;
572;SDS011;271;51.114;13.780;2022-09-29T11:11:26;15.27;;;2.37;;
572;SDS011;271;51.114;13.780;2022-09-29T11:13:55;15.50;;;3.10;;
572;SDS011;271;51.114;13.780;2022-09-29T11:16:27;14.87;;;2.33;;
572;SDS011;271;51.114;13.780;2022-09-29T11:18:58;15.40;;;2.63;;
572;SDS011;271;51.114;13.780;2022-09-29T11:24:28;15.00;;;2.00;;
572;SDS011;271;51.114;13.780;2022-09-29T11:27:05;15.87;;;2.17;;
572;SDS011;271;51.114;13.780;2022-09-29T11:29:42;15.07;;;2.23;;
572;SDS011;271;51.114;13.780;2022-09-29T11:32:24;15.07;;;2.23;;
572;SDS011;271;51.114;13.780;2022-09-29T11:35:02;14.00;;;1.37;;
572;SDS011;271;51.114;13.780;2022-09-29T11:37:52;15.20;;;2.20;;
572;SDS011;271;51.114;13.780;2022-09-29T11:40:33;15.20;;;1.60;;
572;SDS011;271;51.114;13.780;2022-09-29T11:43:13;14.57;;;1.80;;
572;SDS011;271;51.114;13.780;2022-09-29T11:45:55;14.30;;;1.83;;
572;SDS011;271;51.114;13.780;2022-09-29T11:48:37;15.00;;;1.80;;
572;SDS011;271;51.114;13.780;2022-09-29T11:51:22;14.50;;;2.03;;
572;SDS011;271;51.114;13.780;2022-09-29T11:54:00;14.83;;;1.90;;
572;SDS011;271;51.114;13.780;2022-09-29T11:56:45;14.77;;;2.23;;
572;SDS011;271;51.114;13.780;2022-09-29T11:59:22;14.43;;;2.10;;
572;SDS011;271;51.114;13.780;2022-09-29T12:02:10;15.90;;;2.23;;
572;SDS011;271;51.114;13.780;2022-09-29T12:04:54;14.77;;;2.00;;
572;SDS011;271;51.114;13.780;2022-09-29T12:07:28;14.20;;;1.50;;
572;SDS011;271;51.114;13.780;2022-09-29T12:10:14;16.00;;;2.10;;
572;SDS011;271;51.114;13.780;2022-09-29T12:12:52;15.07;;;2.13;;
572;SDS011;271;51.114;13.780;2022-09-29T12:15:29;15.77;;;2.33;;
572;SDS011;271;51.114;13.780;2022-09-29T12:18:06;15.30;;;2.30;;
572;SDS011;271;51.114;13.780;2022-09-29T12:20:41;14.60;;;2.10;;
572;SDS011;271;51.114;13.780;2022-09-29T12:23:12;15.27;;;2.30;;
572;SDS011;271;51.114;13.780;2022-09-29T12:25:52;15.20;;;2.37;;
572;SDS011;271;51.114;13.780;2022-09-29T12:28:25;15.97;;;2.60;;
572;SDS011;271;51.114;13.780;2022-09-29T12:30:58;14.27;;;1.77;;
572;SDS011;271;51.114;13.780;2022-09-29T12:33:30;14.17;;;1.67;;
572;SDS011;271;51.114;13.780;2022-09-29T12:36:06;14.50;;;2.20;;
572;SDS011;271;51.114;13.780;2022-09-29T12:39:00;14.43;;;2.10;;
572;SDS011;271;51.114;13.780;2022-09-29T12:41:37;14.00;;;1.80;;
572;SDS011;271;51.114;13.780;2022-09-29T12:44:11;14.77;;;2.20;;
572;SDS011;271;51.114;13.780;2022-09-29T12:46:47;14.03;;;1.40;;
572;SDS011;271;51.114;13.780;2022-09-29T12:49:20;14.40;;;1.80;;
572;SDS011;271;51.114;13.780;2022-09-29T12:51:50;16.03;;;1.80;;
572;SDS011;271;51.114;13.780;2022-09-29T12:54:21;14.40;;;1.60;;
572;SDS011;271;51.114;13.780;2022-09-29T12:56:55;14.10;;;1.60;;
572;SDS011;271;51.114;13.780;2022-09-29T12:59:28;14.20;;;1.80;;
572;SDS011;271;51.114;13.780;2022-09-29T13:02:03;14.10;;;1.60;;
572;SDS011;271;51.114;13.780;2022-09-29T13:04:49;14.80;;;2.30;;
572;SDS011;271;51.114;13.780;2022-09-29T13:10:36;16.33;;;2.73;;
572;SDS011;271;51.114;13.780;2022-09-29T13:13:32;14.50;;;2.40;;
572;SDS011;271;51.114;13.780;2022-09-29T13:16:29;15.07;;;2.17;;
572;SDS011;271;51.114;13.780;2022-09-29T13:19:10;15.30;;;2.50;;
572;SDS011;271;51.114;13.780;2022-09-29T13:22:10;15.13;;;2.17;;
572;SDS011;271;51.114;13.780;2022-09-29T13:25:10;14.93;;;2.27;;
572;SDS011;271;51.114;13.780;2022-09-29T13:27:47;14.60;;;1.93;;
572;SDS011;271;51.114;13.780;2022-09-29T13:30:19;15.43;;;2.33;;
572;SDS011;271;51.114;13.780;2022-09-29T13:32:48;14.73;;;1.90;;
572;SDS011;271;51.114;13.780;2022-09-29T13:35:26;14.13;;;1.60;;
572;SDS011;271;51.114;13.780;2022-09-29T13:38:00;14.43;;;1.93;;
572;SDS011;271;51.114;13.780;2022-09-29T13:40:29;15.30;;;2.40;;
572;SDS011;271;51.114;13.780;2022-09-29T13:42:57;16.00;;;2.57;;
572;SDS011;271;51.114;13.780;2022-09-29T13:45:41;15.40;;;2.20;;
572;SDS011;271;51.114;13.780;2022-09-29T13:48:34;15.40;;;2.03;;
572;SDS011;271;51.114;13.780;2022-09-29T13:54:27;14.53;;;1.60;;
572;SDS011;271;51.114;13.780;2022-09-29T14:00:00;14.90;;;1.90;;
572;SDS011;271;51.114;13.780;2022-09-29T14:02:34;16.13;;;1.90;;
572;SDS011;271;51.114;13.780;2022-09-29T14:05:04;14.67;;;2.00;;
572;SDS011;271;51.114;13.780;2022-09-29T14:08:06;15.43;;;2.10;;
572;SDS011;271;51.114;13.780;2022-09-29T14:10:44;16.20;;;1.80;;
572;SDS011;271;51.114;13.780;2022-09-29T14:13:19;15.30;;;2.07;;
572;SDS011;271;51.114;13.780;2022-09-29T14:16:00;14.40;;;2.10;;
572;SDS011;271;51.114;13.780;2022-09-29T14:18:44;14.70;;;1.83;;
572;SDS011;271;51.114;13.780;2022-09-29T14:30:00;14.50;;;2.03;;
572;SDS011;271;51.114;13.780;2022-09-29T14:32:39;16.40;;;2.23;;
572;SDS011;271;51.114;13.780;2022-09-29T14:35:19;15.53;;;2.03;;
572;SDS011;271;51.114;13.780;2022-09-29T14:37:56;14.30;;;1.43;;
572;SDS011;271;51.114;13.780;2022-09-29T14:40:26;14.30;;;1.80;;
572;SDS011;271;51.114;13.780;2022-09-29T14:43:10;15.60;;;2.00;;
572;SDS011;271;51.114;13.780;2022-09-29T14:45:50;14.27;;;1.67;;
572;SDS011;271;51.114;13.780;2022-09-29T14:48:54;14.80;;;1.50;;
572;SDS011;271;51.114;13.780;2022-09-29T14:51:51;19.40;;;2.40;;
572;SDS011;271;51.114;13.780;2022-09-29T14:54:29;15.10;;;1.87;;
572;SDS011;271;51.114;13.780;2022-09-29T14:57:09;14.33;;;1.50;;
572;SDS011;271;51.114;13.780;2022-09-29T14:59:50;14.27;;;1.40;;
572;SDS011;271;51.114;13.780;2022-09-29T15:02:26;14.27;;;1.60;;
572;SDS011;271;51.114;13.780;2022-09-29T15:04:55;14.13;;;1.40;;
572;SDS011;271;51.114;13.780;2022-09-29T15:07:25;14.73;;;1.57;;
572;SDS011;271;51.114;13.780;2022-09-29T15:09:53;14.23;;;1.50;;
572;SDS011;271;51.114;13.780;2022-09-29T15:12:23;14.00;;;1.30;;
572;SDS011;271;51.114;13.780;2022-09-29T15:14:52;15.50;;;1.83;;
572;SDS011;271;51.114;13.780;2022-09-29T15:17:26;14.20;;;1.50;;
572;SDS011;271;51.114;13.780;2022-09-29T15:20:04;14.20;;;1.40;;
572;SDS011;271;51.114;13.780;2022-09-29T15:22:51;14.20;;;1.60;;
572;SDS011;271;51.114;13.780;2022-09-29T15:25:27;14.70;;;1.50;;
572;SDS011;271;51.114;13.780;2022-09-29T15:27:58;17.17;;;1.60;;
572;SDS011;271;51.114;13.780;2022-09-29T15:30:31;14.30;;;1.53;;
572;SDS011;271;51.114;13.780;2022-09-29T15:33:05;15.37;;;2.03;;
572;SDS011;271;51.114;13.780;2022-09-29T15:35:42;14.83;;;1.83;;
572;SDS011;271;51.114;13.780;2022-09-29T15:38:25;14.83;;;2.13;;
572;SDS011;271;51.114;13.780;2022-09-29T15:41:00;15.50;;;2.63;;
572;SDS011;271;51.114;13.780;2022-09-29T15:43:33;14.90;;;2.13;;
572;SDS011;271;51.114;13.780;2022-09-29T15:46:14;14.17;;;1.90;;
572;SDS011;271;51.114;13.780;2022-09-29T15:49:03;14.90;;;2.20;;
572;SDS011;271;51.114;13.780;2022-09-29T15:51:38;14.50;;;1.90;;
572;SDS011;271;51.114;13.780;2022-09-29T15:54:10;14.10;;;1.70;;
572;SDS011;271;51.114;13.780;2022-09-29T15:56:39;15.27;;;2.40;;
572;SDS011;271;51.114;13.780;2022-09-29T15:59:37;15.40;;;2.43;;
572;SDS011;271;51.114;13.780;2022-09-29T16:02:11;15.10;;;2.20;;
572;SDS011;271;51.114;13.780;2022-09-29T16:04:45;15.03;;;2.83;;
572;SDS011;271;51.114;13.780;2022-09-29T16:07:15;15.60;;;2.67;;
572;SDS011;271;51.114;13.780;2022-09-29T16:09:47;14.70;;;2.20;;
572;SDS011;271;51.114;13.780;2022-09-29T16:12:15;16.67;;;1.97;;
572;SDS011;271;51.114;13.780;2022-09-29T16:14:45;15.20;;;2.63;;
572;SDS011;271;51.114;13.780;2022-09-29T16:17:13;14.80;;;2.33;;